Terminal Aerodrome Forecast
Issued by NWS

Home | Current Version | Previous Version | Text Only | Print | Product List | Glossary On
Versions: 1 2 3 4 5 6 7 8 9 10 11 12
000
FTAK31 PAJN 250524
TAFAGY
TAF
PAGY 250524Z 2506/2606 20012KT P6SM OVC045
     FM251200 21008KT P6SM -SHRA BKN025 OVC040
     FM252100 21014KT P6SM VCSH SCT030 BKN050
      AMD LTD TO CLD VIS AND WIND=

USA.gov is the U.S. government's official web portal to all federal, state and local government web resources and services.